CheckWX is a tool to help pilots better visualize weather data.  It is not intended as a substitute for an official pre-flight weather briefing.

03:18:20 UTC

KCKB METAR
North Central West Virginia Airport
Clarksburg, West Virginia, USA
Current

25 mins ago

KCKB 270253Z AUTO 13003KT 10SM SCT110 20/18 A3002 RMK AO2 SLP153 60003 T02000178 50006
Observed
May-27 @ 02:53 UTC
Wind
  • 130° at 3 KTS
Visibility
10 SM
Flight Rules
VFR
Cloud Levels
  • Scattered at 11,000' AGL
Temperature
20°C / 68°F
Dewpoint
18°C / 64°F
Humidity
88%
Altimeter
30.02" Hg
Pressure
1016.62 hPa
Previous

1 hour ago

KCKB 270153Z AUTO 19005KT 10SM SCT017 SCT041 OVC100 21/18 A3005 RMK AO2 RAE0059B38E47 SLP162 P0000 T02060178
Observed
May-27 @ 01:53 UTC
Wind
  • 190° at 5 KTS
Visibility
10 SM
Flight Rules
VFR
Cloud Levels
  • Scattered at 1,700' AGL
  • Scattered at 4,100' AGL
  • Overcast at 10,000' AGL
Temperature
21°C / 70°F
Dewpoint
18°C / 64°F
Humidity
83%
Altimeter
30.05" Hg
Pressure
1017.62 hPa
Current Rain
0.01"
Previous

2 hours ago

KCKB 270145Z AUTO 20004KT 10SM -RA BKN017 BKN041 OVC100 21/18 A3005 RMK AO2 LTG DSNT N AND NE RAE0059B38 P0000 T02110178
Observed
May-27 @ 01:45 UTC
Wind
  • 200° at 4 KTS
Visibility
10 SM
Flight Rules
MVFR
Conditions
Light Rain
Cloud Levels
  • Broken at 1,700' AGL
  • Broken at 4,100' AGL
  • Overcast at 10,000' AGL
Temperature
21°C / 70°F
Dewpoint
18°C / 64°F
Humidity
83%
Altimeter
30.05" Hg
Pressure
1017.62 hPa
Current Rain
0.01"